Time;durP1;ratioP1;P1;durP2;ratioP2;P2;SDS_P1;SDS_P2;PMS_P1;PMS_P2;Temp;Humidity;BMP_temperature;BMP_pressure;BME280_temperature;BME280_humidity;BME280_pressure;Samples;Min_cycle;Max_cycle;Signal;HPM_P1;HPM_P2
2022/07/24 00:01:41;;;;;;;9.27;2.30;;;;;;;;;;5040021;28;20036;-70
2022/07/24 00:04:09;;;;;;;5.20;2.03;;;;;;;;;;5042102;28;20033;-77
2022/07/24 00:06:35;;;;;;;5.88;2.45;;;;;;;;;;5041327;28;21604;-70
2022/07/24 00:09:01;;;;;;;2.65;2.20;;;;;;;;;;5040242;28;20126;-70
2022/07/24 00:11:27;;;;;;;8.73;2.40;;;;;;;;;;5043914;28;20025;-77
2022/07/24 00:13:53;;;;;;;2.85;2.22;;;;;;;;;;5044814;28;20409;-79
2022/07/24 00:16:20;;;;;;;3.30;2.10;;;;;;;;;;5044807;28;20366;-70
2022/07/24 00:18:46;;;;;;;5.78;2.30;;;;;;;;;;5040378;28;20433;-70
2022/07/24 00:21:12;;;;;;;3.72;2.15;;;;;;;;;;5042723;28;20599;-72
2022/07/24 00:23:38;;;;;;;3.03;2.40;;;;;;;;;;5044087;28;20511;-70
2022/07/24 00:26:05;;;;;;;4.32;2.80;;;;;;;;;;5037815;28;20029;-70
2022/07/24 00:28:31;;;;;;;2.83;2.25;;;;;;;;;;5044366;28;20029;-70
2022/07/24 00:30:57;;;;;;;5.43;2.42;;;;;;;;;;5045301;28;20033;-70
2022/07/24 00:33:23;;;;;;;2.92;2.40;;;;;;;;;;5042080;28;20131;-70
2022/07/24 00:35:50;;;;;;;6.05;2.53;;;;;;;;;;5026790;28;20025;-70
2022/07/24 00:38:16;;;;;;;4.22;2.40;;;;;;;;;;5044378;28;20477;-71
2022/07/24 00:40:42;;;;;;;3.90;2.60;;;;;;;;;;5041005;28;20040;-77
2022/07/24 00:43:08;;;;;;;5.28;2.90;;;;;;;;;;5044222;28;20104;-70
2022/07/24 00:45:34;;;;;;;3.55;3.08;;;;;;;;;;5043901;28;20045;-75
2022/07/24 00:48:00;;;;;;;4.40;3.40;;;;;;;;;;5040678;28;20029;-71
2022/07/24 00:50:27;;;;;;;6.05;2.72;;;;;;;;;;5046083;28;20037;-73
2022/07/24 00:52:53;;;;;;;6.53;3.20;;;;;;;;;;5043609;28;20047;-70
2022/07/24 00:55:20;;;;;;;6.30;3.38;;;;;;;;;;5040892;28;20041;-75
2022/07/24 00:57:48;;;;;;;5.75;3.25;;;;;;;;;;5044086;28;20029;-71
2022/07/24 01:00:16;;;;;;;5.22;3.20;;;;;;;;;;5041532;28;20066;-75
2022/07/24 01:02:42;;;;;;;3.60;3.05;;;;;;;;;;5040403;28;20159;-73
2022/07/24 01:05:09;;;;;;;5.25;3.50;;;;;;;;;;5043985;28;20033;-70
2022/07/24 01:07:35;;;;;;;5.35;3.33;;;;;;;;;;5027070;28;20036;-70
2022/07/24 01:10:01;;;;;;;4.22;3.83;;;;;;;;;;5023018;28;20032;-70
2022/07/24 01:12:27;;;;;;;7.35;3.38;;;;;;;;;;5041720;28;20060;-74
2022/07/24 01:14:53;;;;;;;10.50;3.30;;;;;;;;;;5038780;28;20033;-70
2022/07/24 01:17:20;;;;;;;5.45;4.03;;;;;;;;;;5042525;28;20033;-70
2022/07/24 01:19:46;;;;;;;9.40;4.50;;;;;;;;;;5035108;28;20532;-70
2022/07/24 01:22:12;;;;;;;5.82;3.60;;;;;;;;;;5044262;28;20037;-70
2022/07/24 01:24:38;;;;;;;8.65;4.22;;;;;;;;;;5040406;28;20037;-78
2022/07/24 01:27:04;;;;;;;5.95;4.10;;;;;;;;;;5043148;28;20028;-71
2022/07/24 01:29:30;;;;;;;5.68;4.13;;;;;;;;;;5039991;28;20025;-72
2022/07/24 01:31:56;;;;;;;4.47;4.07;;;;;;;;;;5039595;28;20041;-71
2022/07/24 01:34:22;;;;;;;4.55;4.15;;;;;;;;;;5031386;28;20060;-79
2022/07/24 01:36:48;;;;;;;4.80;3.55;;;;;;;;;;5025654;28;20048;-70
2022/07/24 01:39:14;;;;;;;5.88;4.53;;;;;;;;;;5043837;28;20025;-70
2022/07/24 01:41:40;;;;;;;6.18;4.07;;;;;;;;;;5039500;28;20021;-78
2022/07/24 01:44:06;;;;;;;6.40;3.92;;;;;;;;;;5045093;28;20044;-70
2022/07/24 01:46:32;;;;;;;5.47;4.60;;;;;;;;;;5041234;28;20032;-72
2022/07/24 01:48:58;;;;;;;4.95;4.05;;;;;;;;;;5022230;28;20029;-70
2022/07/24 01:51:24;;;;;;;10.65;4.95;;;;;;;;;;5041815;28;20044;-70
2022/07/24 01:53:50;;;;;;;5.93;4.20;;;;;;;;;;5044167;28;20033;-74
2022/07/24 01:56:17;;;;;;;5.60;4.80;;;;;;;;;;5041440;28;20035;-73
2022/07/24 01:58:43;;;;;;;5.78;4.40;;;;;;;;;;5044225;28;20470;-75
2022/07/24 02:01:09;;;;;;;5.90;4.28;;;;;;;;;;5044523;28;20036;-71
2022/07/24 02:03:35;;;;;;;7.45;4.60;;;;;;;;;;5023556;28;20032;-71
2022/07/24 02:06:01;;;;;;;5.28;4.78;;;;;;;;;;5043454;28;20041;-77
2022/07/24 02:08:27;;;;;;;8.95;4.78;;;;;;;;;;5043117;28;20068;-70
2022/07/24 02:10:53;;;;;;;8.23;5.30;;;;;;;;;;5044978;28;20029;-70
2022/07/24 02:13:19;;;;;;;5.22;4.50;;;;;;;;;;5038503;28;20049;-70
2022/07/24 02:15:45;;;;;;;6.32;4.93;;;;;;;;;;5046064;28;20025;-73
2022/07/24 02:18:11;;;;;;;5.47;4.95;;;;;;;;;;5044921;28;20037;-70
2022/07/24 02:20:38;;;;;;;7.22;5.82;;;;;;;;;;5040049;28;20444;-70
2022/07/24 02:23:04;;;;;;;6.07;5.47;;;;;;;;;;5042471;28;20036;-70
2022/07/24 02:25:30;;;;;;;5.60;5.13;;;;;;;;;;5040086;28;20048;-70
2022/07/24 02:27:56;;;;;;;5.10;4.65;;;;;;;;;;5037791;28;20112;-70
2022/07/24 02:30:24;;;;;;;6.82;5.30;;;;;;;;;;5042695;28;20118;-70
2022/07/24 02:32:50;;;;;;;7.05;5.78;;;;;;;;;;5042360;28;20029;-70
2022/07/24 02:35:16;;;;;;;7.97;5.70;;;;;;;;;;5022931;28;20438;-70
2022/07/24 02:37:43;;;;;;;8.57;5.65;;;;;;;;;;5040936;28;20037;-70
2022/07/24 02:40:10;;;;;;;7.75;4.93;;;;;;;;;;5044556;28;20060;-70
2022/07/24 02:42:36;;;;;;;6.95;5.32;;;;;;;;;;5040107;28;20029;-73
2022/07/24 02:45:04;;;;;;;6.78;5.15;;;;;;;;;;5041680;28;20034;-78
2022/07/24 02:47:30;;;;;;;5.88;5.28;;;;;;;;;;5042787;28;20021;-73
2022/07/24 02:49:56;;;;;;;19.40;15.73;;;;;;;;;;5042344;28;20458;-71
2022/07/24 02:52:22;;;;;;;46.17;32.88;;;;;;;;;;5045591;28;20037;-71
2022/07/24 02:54:49;;;;;;;20.45;16.60;;;;;;;;;;5043441;28;20120;-73
2022/07/24 02:57:15;;;;;;;9.77;6.68;;;;;;;;;;5046002;28;20032;-70
2022/07/24 02:59:41;;;;;;;9.02;5.70;;;;;;;;;;5047349;28;20048;-71
2022/07/24 03:02:07;;;;;;;6.50;5.80;;;;;;;;;;5043955;28;20033;-71
2022/07/24 03:04:33;;;;;;;6.43;5.55;;;;;;;;;;5044503;28;20035;-70
2022/07/24 03:07:00;;;;;;;6.90;5.90;;;;;;;;;;5046855;28;20041;-72
2022/07/24 03:09:26;;;;;;;6.85;5.22;;;;;;;;;;5042747;28;20401;-73
2022/07/24 03:11:52;;;;;;;6.05;5.32;;;;;;;;;;5045531;28;20419;-71
2022/07/24 03:14:18;;;;;;;6.90;6.18;;;;;;;;;;5045860;28;20468;-69
2022/07/24 03:16:44;;;;;;;7.93;5.93;;;;;;;;;;5041274;28;20032;-73
2022/07/24 03:19:10;;;;;;;9.07;5.47;;;;;;;;;;5045468;28;20047;-71
2022/07/24 03:21:36;;;;;;;7.15;5.63;;;;;;;;;;5045064;28;20334;-72
2022/07/24 03:24:02;;;;;;;7.07;5.70;;;;;;;;;;5025854;28;20465;-72
2022/07/24 03:26:28;;;;;;;6.25;5.65;;;;;;;;;;5044508;28;20037;-80
2022/07/24 03:28:54;;;;;;;7.40;5.75;;;;;;;;;;5046098;28;20025;-70
2022/07/24 03:31:20;;;;;;;8.57;5.80;;;;;;;;;;5023731;28;20083;-71
2022/07/24 03:33:46;;;;;;;17.05;7.18;;;;;;;;;;5043847;28;20138;-70
2022/07/24 03:36:12;;;;;;;8.85;5.50;;;;;;;;;;5021636;28;20052;-71
2022/07/24 03:38:38;;;;;;;9.15;6.38;;;;;;;;;;5037972;28;20033;-70
2022/07/24 03:41:04;;;;;;;7.57;6.75;;;;;;;;;;5044133;28;20124;-73
2022/07/24 03:43:30;;;;;;;6.75;5.88;;;;;;;;;;5045806;28;20448;-70
2022/07/24 03:45:56;;;;;;;6.72;6.03;;;;;;;;;;5041549;28;20029;-70
2022/07/24 03:48:22;;;;;;;8.98;6.07;;;;;;;;;;5042837;28;20041;-70
2022/07/24 03:50:49;;;;;;;11.68;6.28;;;;;;;;;;5029185;28;20037;-70
2022/07/24 03:53:15;;;;;;;12.70;6.50;;;;;;;;;;5043269;28;20444;-70
2022/07/24 03:55:41;;;;;;;7.20;5.90;;;;;;;;;;5040259;28;20094;-70
2022/07/24 03:58:07;;;;;;;8.82;6.38;;;;;;;;;;5045699;28;20041;-74
2022/07/24 04:00:33;;;;;;;7.57;5.82;;;;;;;;;;5039376;28;20060;-81
2022/07/24 04:02:59;;;;;;;9.00;6.60;;;;;;;;;;5045830;28;20041;-70
2022/07/24 04:05:25;;;;;;;8.45;6.15;;;;;;;;;;5046049;28;20033;-70
2022/07/24 04:07:51;;;;;;;11.32;6.18;;;;;;;;;;5040332;28;20119;-77
2022/07/24 04:10:17;;;;;;;10.07;6.50;;;;;;;;;;5044017;28;20045;-75
2022/07/24 04:12:43;;;;;;;8.93;6.47;;;;;;;;;;5039634;28;20072;-70
2022/07/24 04:15:09;;;;;;;10.40;6.35;;;;;;;;;;5037160;28;20041;-70
2022/07/24 04:17:39;;;;;;;7.85;6.68;;;;;;;;;;5033578;28;20032;-78
2022/07/24 04:20:06;;;;;;;7.82;6.60;;;;;;;;;;5046791;28;20372;-78
2022/07/24 04:22:32;;;;;;;13.80;6.70;;;;;;;;;;5041015;28;20067;-69
2022/07/24 04:24:58;;;;;;;10.38;6.18;;;;;;;;;;5041493;28;20029;-70
2022/07/24 04:27:24;;;;;;;8.65;6.90;;;;;;;;;;5024823;28;20037;-78
2022/07/24 04:29:50;;;;;;;12.15;6.93;;;;;;;;;;5043653;28;20037;-70
2022/07/24 04:32:16;;;;;;;9.25;6.55;;;;;;;;;;5042717;28;20044;-69
2022/07/24 04:34:42;;;;;;;9.73;6.35;;;;;;;;;;5044851;28;20061;-72
2022/07/24 04:37:08;;;;;;;10.60;7.90;;;;;;;;;;5044518;28;20177;-78
2022/07/24 04:39:34;;;;;;;8.80;6.97;;;;;;;;;;5042401;28;20044;-69
2022/07/24 04:42:00;;;;;;;9.40;7.07;;;;;;;;;;5044944;28;20044;-69
2022/07/24 04:44:26;;;;;;;7.93;6.60;;;;;;;;;;5041267;28;20544;-74
2022/07/24 04:46:52;;;;;;;7.50;6.72;;;;;;;;;;5040291;28;20608;-70
2022/07/24 04:49:18;;;;;;;10.27;6.68;;;;;;;;;;5042744;28;20033;-69
2022/07/24 04:51:44;;;;;;;10.52;6.90;;;;;;;;;;5044401;28;20032;-70
2022/07/24 04:54:10;;;;;;;13.48;7.22;;;;;;;;;;5043621;28;20040;-70
2022/07/24 04:56:36;;;;;;;10.98;6.72;;;;;;;;;;5043364;28;20033;-70
2022/07/24 04:59:02;;;;;;;9.18;7.35;;;;;;;;;;5043752;28;20654;-72
2022/07/24 05:01:28;;;;;;;11.00;6.70;;;;;;;;;;5022823;28;20047;-78
2022/07/24 05:03:56;;;;;;;8.23;6.72;;;;;;;;;;5044356;28;20048;-69
2022/07/24 05:06:23;;;;;;;7.95;6.40;;;;;;;;;;5026736;28;20036;-70
2022/07/24 05:08:49;;;;;;;9.00;7.25;;;;;;;;;;5041460;28;20380;-74
2022/07/24 05:11:15;;;;;;;7.38;6.45;;;;;;;;;;5042797;28;20024;-72
2022/07/24 05:13:41;;;;;;;9.25;7.00;;;;;;;;;;5040721;28;20056;-70
2022/07/24 05:16:07;;;;;;;8.80;7.07;;;;;;;;;;5021956;28;20036;-73
2022/07/24 05:18:33;;;;;;;10.73;7.65;;;;;;;;;;5024939;28;20160;-75
2022/07/24 05:20:59;;;;;;;10.70;8.20;;;;;;;;;;5044697;28;20051;-76
2022/07/24 05:23:25;;;;;;;10.30;7.13;;;;;;;;;;5042666;28;20079;-76
2022/07/24 05:25:51;;;;;;;8.45;7.65;;;;;;;;;;5042109;28;20029;-70
2022/07/24 05:28:17;;;;;;;15.90;8.02;;;;;;;;;;5041801;28;20029;-81
2022/07/24 05:30:44;;;;;;;9.43;7.35;;;;;;;;;;5041797;28;20040;-71
2022/07/24 05:33:10;;;;;;;10.55;7.80;;;;;;;;;;5039025;28;20143;-71
2022/07/24 05:35:36;;;;;;;9.45;7.90;;;;;;;;;;5044879;28;20505;-70
2022/07/24 05:38:02;;;;;;;12.32;8.68;;;;;;;;;;5043315;28;20484;-70
2022/07/24 05:40:28;;;;;;;11.57;7.80;;;;;;;;;;5041489;28;20033;-70
2022/07/24 05:42:54;;;;;;;14.30;7.90;;;;;;;;;;5044163;28;20087;-76
2022/07/24 05:45:20;;;;;;;8.95;7.57;;;;;;;;;;5044099;28;20029;-77
2022/07/24 05:47:47;;;;;;;10.13;8.38;;;;;;;;;;5038773;28;20076;-73
2022/07/24 05:50:14;;;;;;;10.80;8.70;;;;;;;;;;5020798;28;20033;-70
2022/07/24 05:52:40;;;;;;;12.40;8.80;;;;;;;;;;5043868;28;20568;-69
2022/07/24 05:55:07;;;;;;;11.88;8.68;;;;;;;;;;5043921;28;20028;-70
2022/07/24 05:57:33;;;;;;;16.52;9.20;;;;;;;;;;5023399;28;20390;-70
2022/07/24 05:59:59;;;;;;;12.13;9.65;;;;;;;;;;5043220;28;20037;-70
2022/07/24 06:02:26;;;;;;;13.25;9.80;;;;;;;;;;5042612;28;20033;-70
2022/07/24 06:04:52;;;;;;;11.65;8.73;;;;;;;;;;5040353;28;20037;-70
2022/07/24 06:07:18;;;;;;;12.82;9.27;;;;;;;;;;5043497;28;20511;-80
2022/07/24 06:09:44;;;;;;;11.02;9.85;;;;;;;;;;5039896;28;20408;-72
2022/07/24 06:12:10;;;;;;;14.73;9.60;;;;;;;;;;5041855;28;20511;-70
2022/07/24 06:14:36;;;;;;;13.27;10.07;;;;;;;;;;5043760;28;20370;-70
2022/07/24 06:17:02;;;;;;;17.73;10.32;;;;;;;;;;5040788;28;20033;-69
2022/07/24 06:19:28;;;;;;;15.10;10.60;;;;;;;;;;5041308;28;20560;-76
2022/07/24 06:21:54;;;;;;;13.70;10.52;;;;;;;;;;5043729;28;20032;-70
2022/07/24 06:24:20;;;;;;;15.23;10.32;;;;;;;;;;5042773;28;20103;-79
2022/07/24 06:26:46;;;;;;;15.85;10.30;;;;;;;;;;5043021;28;20132;-70
2022/07/24 06:29:12;;;;;;;11.73;9.05;;;;;;;;;;5042432;28;20438;-74
2022/07/24 06:31:38;;;;;;;15.50;10.23;;;;;;;;;;5042440;28;20045;-73
2022/07/24 06:34:04;;;;;;;12.90;10.07;;;;;;;;;;5037034;28;20130;-73
2022/07/24 06:36:30;;;;;;;14.95;11.07;;;;;;;;;;5042422;28;20032;-73
2022/07/24 06:38:56;;;;;;;10.25;8.77;;;;;;;;;;5050668;28;20029;-76
2022/07/24 06:41:22;;;;;;;15.90;13.43;;;;;;;;;;5031308;28;20120;-76
2022/07/24 06:43:50;;;;;;;15.13;10.55;;;;;;;;;;5032055;28;20799;-72
2022/07/24 06:46:16;;;;;;;11.73;10.38;;;;;;;;;;5047582;28;20079;-75
2022/07/24 06:48:42;;;;;;;15.23;9.80;;;;;;;;;;5047233;28;20496;-75
2022/07/24 06:51:08;;;;;;;15.60;10.27;;;;;;;;;;5028982;28;20032;-74
2022/07/24 06:53:34;;;;;;;14.15;10.63;;;;;;;;;;5052976;28;20045;-74
2022/07/24 06:56:01;;;;;;;25.90;10.52;;;;;;;;;;5045583;28;20033;-74
2022/07/24 06:58:27;;;;;;;11.32;9.95;;;;;;;;;;5051508;28;20473;-74
2022/07/24 07:00:53;;;;;;;10.82;9.15;;;;;;;;;;5045035;28;20381;-76
2022/07/24 07:03:19;;;;;;;14.90;9.07;;;;;;;;;;5050362;28;20485;-76
2022/07/24 07:05:45;;;;;;;13.25;9.50;;;;;;;;;;5042466;28;20071;-73
2022/07/24 07:08:11;;;;;;;10.90;7.63;;;;;;;;;;5052550;28;20499;-74
2022/07/24 07:10:37;;;;;;;10.07;8.20;;;;;;;;;;5047090;28;20507;-78
2022/07/24 07:13:03;;;;;;;12.35;6.80;;;;;;;;;;5027503;28;20474;-78
2022/07/24 07:15:29;;;;;;;12.55;8.93;;;;;;;;;;5040664;28;20111;-76
2022/07/24 07:17:55;;;;;;;9.80;7.90;;;;;;;;;;5036130;28;20136;-77
2022/07/24 07:20:21;;;;;;;9.50;7.25;;;;;;;;;;5049634;28;20036;-72
2022/07/24 07:22:47;;;;;;;11.57;7.82;;;;;;;;;;5050683;28;20045;-80
2022/07/24 07:25:13;;;;;;;9.73;7.70;;;;;;;;;;5047574;28;20021;-78
2022/07/24 07:27:40;;;;;;;12.63;8.10;;;;;;;;;;5051886;28;20515;-78
2022/07/24 07:30:06;;;;;;;9.98;7.60;;;;;;;;;;5046735;28;20431;-80
2022/07/24 07:32:32;;;;;;;13.50;7.55;;;;;;;;;;5039464;28;20094;-79
2022/07/24 07:34:58;;;;;;;11.23;7.68;;;;;;;;;;5046525;28;20091;-75
2022/07/24 07:37:24;;;;;;;10.52;6.05;;;;;;;;;;5053745;28;20094;-78
2022/07/24 07:39:50;;;;;;;10.02;5.75;;;;;;;;;;5030765;28;20033;-78
2022/07/24 07:42:16;;;;;;;11.75;6.80;;;;;;;;;;5043464;28;20108;-71
2022/07/24 07:44:42;;;;;;;9.57;6.72;;;;;;;;;;5042434;28;20176;-72
2022/07/24 07:47:08;;;;;;;6.25;5.65;;;;;;;;;;5045247;28;20033;-70
2022/07/24 07:49:34;;;;;;;8.18;5.88;;;;;;;;;;5050366;28;20029;-70
2022/07/24 07:52:01;;;;;;;8.10;5.30;;;;;;;;;;5044854;28;20087;-70
2022/07/24 07:54:27;;;;;;;8.05;5.38;;;;;;;;;;5048983;28;20105;-68
2022/07/24 07:56:53;;;;;;;6.40;5.25;;;;;;;;;;5037673;28;20037;-76
2022/07/24 07:59:19;;;;;;;12.85;8.15;;;;;;;;;;5050644;28;20135;-82
2022/07/24 08:01:45;;;;;;;7.45;5.35;;;;;;;;;;5057238;28;20028;-78
2022/07/24 08:04:11;;;;;;;6.75;4.60;;;;;;;;;;5047449;28;20108;-72
2022/07/24 08:06:37;;;;;;;8.13;4.78;;;;;;;;;;5042005;28;20051;-72
2022/07/24 08:09:03;;;;;;;7.20;4.40;;;;;;;;;;5047918;28;20040;-70
2022/07/24 08:11:30;;;;;;;9.70;4.60;;;;;;;;;;5048370;28;20037;-71
2022/07/24 08:13:56;;;;;;;6.82;3.90;;;;;;;;;;5047002;28;20033;-73
2022/07/24 08:16:22;;;;;;;4.95;4.13;;;;;;;;;;5040290;28;20040;-71
2022/07/24 08:18:48;;;;;;;4.28;3.83;;;;;;;;;;5047085;28;20032;-72
2022/07/24 08:21:17;;;;;;;5.25;3.83;;;;;;;;;;5027736;28;20035;-71
2022/07/24 08:23:43;;;;;;;7.90;3.63;;;;;;;;;;5046682;28;20221;-71
2022/07/24 08:26:10;;;;;;;18.52;11.23;;;;;;;;;;5030171;28;20052;-72
2022/07/24 08:28:36;;;;;;;16.85;7.40;;;;;;;;;;5051294;28;20385;-72
2022/07/24 08:31:02;;;;;;;5.55;3.25;;;;;;;;;;5035242;28;20999;-74
2022/07/24 08:33:28;;;;;;;6.50;3.00;;;;;;;;;;5040831;28;20501;-73
2022/07/24 08:35:54;;;;;;;4.78;2.83;;;;;;;;;;5043474;28;20021;-77
2022/07/24 08:38:20;;;;;;;5.70;2.75;;;;;;;;;;5038495;28;20038;-73
2022/07/24 08:40:46;;;;;;;5.95;3.25;;;;;;;;;;5035093;28;20063;-73
2022/07/24 08:43:12;;;;;;;3.88;2.50;;;;;;;;;;5043215;28;20049;-71
2022/07/24 08:45:40;;;;;;;5.47;2.60;;;;;;;;;;5046034;28;20057;-75
2022/07/24 08:48:07;;;;;;;4.70;2.35;;;;;;;;;;5052294;28;20029;-71
2022/07/24 08:50:34;;;;;;;3.78;2.38;;;;;;;;;;5041059;28;20086;-71
2022/07/24 08:53:00;;;;;;;3.67;2.30;;;;;;;;;;5050170;28;20041;-71
2022/07/24 08:55:27;;;;;;;2.40;1.63;;;;;;;;;;5029143;28;20032;-71
2022/07/24 08:57:53;;;;;;;6.60;2.33;;;;;;;;;;5045492;28;20037;-71
2022/07/24 09:00:20;;;;;;;3.85;2.10;;;;;;;;;;5049058;28;20025;-77
2022/07/24 09:02:46;;;;;;;5.35;3.03;;;;;;;;;;5051586;28;20095;-73
2022/07/24 09:05:12;;;;;;;3.97;2.80;;;;;;;;;;5046450;28;20037;-74
2022/07/24 09:07:38;;;;;;;7.75;3.67;;;;;;;;;;5047627;28;20043;-71
2022/07/24 09:10:06;;;;;;;3.45;1.70;;;;;;;;;;5048581;28;20029;-72
2022/07/24 09:12:36;;;;;;;3.25;1.90;;;;;;;;;;5040252;28;20061;-72
2022/07/24 09:15:10;;;;;;;7.22;1.92;;;;;;;;;;5049877;28;20033;-71
2022/07/24 09:17:37;;;;;;;6.47;2.00;;;;;;;;;;5041703;28;20480;-71
2022/07/24 09:20:03;;;;;;;2.50;1.83;;;;;;;;;;5049727;28;20034;-71
2022/07/24 09:22:34;;;;;;;4.80;2.00;;;;;;;;;;5039490;28;20033;-71
2022/07/24 09:25:00;;;;;;;;;;;;;;;;;;5051813;28;20032;-77
2022/07/24 09:27:26;;;;;;;5.72;2.20;;;;;;;;;;5046657;28;21549;-72
2022/07/24 09:29:53;;;;;;;4.47;1.90;;;;;;;;;;5043502;28;20037;-74
2022/07/24 09:32:22;;;;;;;2.63;1.83;;;;;;;;;;5045604;28;20041;-72
2022/07/24 09:34:51;;;;;;;3.30;1.92;;;;;;;;;;5049652;28;20053;-77
2022/07/24 09:37:17;;;;;;;4.15;2.03;;;;;;;;;;5047596;28;20032;-71
2022/07/24 09:39:43;;;;;;;3.22;1.65;;;;;;;;;;5047983;28;20037;-72
2022/07/24 09:42:10;;;;;;;4.30;1.73;;;;;;;;;;5047711;28;20052;-78
2022/07/24 09:44:36;;;;;;;4.80;1.60;;;;;;;;;;5049827;28;20029;-74
2022/07/24 09:47:06;;;;;;;2.88;1.50;;;;;;;;;;5043478;28;20540;-72
2022/07/24 09:49:33;;;;;;;4.07;1.70;;;;;;;;;;5039639;28;20029;-72
2022/07/24 09:52:06;;;;;;;3.00;1.73;;;;;;;;;;5044615;28;20086;-75
2022/07/24 09:54:34;;;;;;;2.40;1.63;;;;;;;;;;5020394;28;20091;-72
2022/07/24 09:57:17;;;;;;;3.88;1.77;;;;;;;;;;5045705;28;20493;-72
2022/07/24 09:59:45;;;;;;;2.92;1.65;;;;;;;;;;5050625;28;20029;-76
2022/07/24 10:02:13;;;;;;;3.28;1.60;;;;;;;;;;5041017;28;20057;-73
2022/07/24 10:04:42;;;;;;;3.83;1.60;;;;;;;;;;5048001;28;20039;-72
2022/07/24 10:07:10;;;;;;;6.57;2.30;;;;;;;;;;5029599;28;20124;-72
2022/07/24 10:09:40;;;;;;;2.95;1.88;;;;;;;;;;5048044;28;20040;-72
2022/07/24 10:12:11;;;;;;;3.92;1.60;;;;;;;;;;5044464;28;20095;-71
2022/07/24 10:14:39;;;;;;;7.07;1.50;;;;;;;;;;5023419;28;20080;-72
2022/07/24 10:17:06;;;;;;;2.05;1.35;;;;;;;;;;5030802;28;20453;-72
2022/07/24 10:19:44;;;;;;;3.60;1.58;;;;;;;;;;5041825;28;20029;-71
2022/07/24 10:22:11;;;;;;;1.95;1.30;;;;;;;;;;5048251;28;20091;-71
2022/07/24 10:24:40;;;;;;;4.07;2.17;;;;;;;;;;5049849;28;20102;-72
2022/07/24 10:27:10;;;;;;;5.10;1.85;;;;;;;;;;5029896;28;20025;-71
2022/07/24 10:29:36;;;;;;;6.28;3.05;;;;;;;;;;5024452;28;20358;-73
2022/07/24 10:32:02;;;;;;;4.25;1.63;;;;;;;;;;5030330;28;20083;-73
2022/07/24 10:34:48;;;;;;;5.68;1.50;;;;;;;;;;5042212;28;20179;-72
2022/07/24 10:37:14;;;;;;;1.98;1.60;;;;;;;;;;5044871;28;20064;-72
2022/07/24 10:40:00;;;;;;;4.30;1.73;;;;;;;;;;5048615;28;20029;-72
2022/07/24 10:42:26;;;;;;;3.38;1.90;;;;;;;;;;4992695;28;20043;-72
2022/07/24 10:45:10;;;;;;;5.60;1.67;;;;;;;;;;5046443;28;20076;-73
2022/07/24 10:47:36;;;;;;;8.10;1.65;;;;;;;;;;5041388;28;20041;-71
2022/07/24 10:50:04;;;;;;;3.03;1.63;;;;;;;;;;5037029;28;20037;-73
2022/07/24 10:52:32;;;;;;;5.05;1.80;;;;;;;;;;5045933;28;20136;-71
2022/07/24 10:55:26;;;;;;;3.67;1.60;;;;;;;;;;5048343;28;20533;-71
2022/07/24 10:58:10;;;;;;;2.55;1.88;;;;;;;;;;5042420;28;20106;-75
2022/07/24 11:00:37;;;;;;;3.75;2.63;;;;;;;;;;5043126;28;20377;-72
2022/07/24 11:03:04;;;;;;;5.30;1.48;;;;;;;;;;5025052;28;20029;-74
2022/07/24 11:05:35;;;;;;;3.67;1.42;;;;;;;;;;5045819;28;20065;-73
2022/07/24 11:08:17;;;;;;;2.30;1.60;;;;;;;;;;5042010;28;20049;-72
2022/07/24 11:10:46;;;;;;;4.07;1.52;;;;;;;;;;5033916;28;20390;-76
2022/07/24 11:13:31;;;;;;;3.88;1.30;;;;;;;;;;5032306;28;20495;-76
2022/07/24 11:16:13;;;;;;;6.28;2.03;;;;;;;;;;5041043;28;20029;-72
2022/07/24 11:18:39;;;;;;;6.22;1.42;;;;;;;;;;5051595;28;20029;-72
2022/07/24 11:21:05;;;;;;;4.88;1.63;;;;;;;;;;5053499;28;20069;-71
2022/07/24 11:23:32;;;;;;;2.67;1.50;;;;;;;;;;5048725;28;20041;-72
2022/07/24 11:26:20;;;;;;;1.88;1.65;;;;;;;;;;5034849;28;20741;-72
2022/07/24 11:29:05;;;;;;;3.08;1.73;;;;;;;;;;5049598;28;20033;-72
2022/07/24 11:31:32;;;;;;;2.00;1.40;;;;;;;;;;5051163;28;20445;-73
2022/07/24 11:33:59;;;;;;;2.42;1.50;;;;;;;;;;5051274;28;20087;-72
2022/07/24 11:36:25;;;;;;;1.98;1.40;;;;;;;;;;5051226;28;20465;-75
2022/07/24 11:38:52;;;;;;;2.25;1.20;;;;;;;;;;5052370;28;20530;-72
2022/07/24 11:41:18;;;;;;;3.67;1.45;;;;;;;;;;5051050;28;20436;-77
2022/07/24 11:43:54;;;;;;;4.63;1.58;;;;;;;;;;5053206;28;20040;-73
2022/07/24 11:46:35;;;;;;;3.97;1.60;;;;;;;;;;5048868;28;20028;-71
2022/07/24 11:49:01;;;;;;;;;;;;;;;;;;5048086;28;20033;-78
2022/07/24 11:51:27;;;;;;;2.35;1.42;;;;;;;;;;5046426;28;19967;-72
2022/07/24 11:53:53;;;;;;;2.67;1.60;;;;;;;;;;5054915;28;20033;-72
2022/07/24 11:56:19;;;;;;;4.15;1.60;;;;;;;;;;5035009;28;20042;-72
2022/07/24 11:58:45;;;;;;;3.28;1.75;;;;;;;;;;5051830;28;20041;-72
2022/07/24 12:01:21;;;;;;;5.85;1.70;;;;;;;;;;5039211;28;20037;-71
2022/07/24 12:03:54;;;;;;;2.70;1.45;;;;;;;;;;5048592;28;20106;-72
2022/07/24 12:06:20;;;;;;;4.82;1.25;;;;;;;;;;5051229;28;20098;-72
2022/07/24 12:08:47;;;;;;;2.63;1.30;;;;;;;;;;5051812;28;20033;-72
2022/07/24 12:11:21;;;;;;;2.38;1.48;;;;;;;;;;5048585;28;20033;-71
2022/07/24 12:13:48;;;;;;;2.67;1.55;;;;;;;;;;5050591;28;20028;-72
2022/07/24 12:16:28;;;;;;;2.38;1.45;;;;;;;;;;5046780;28;20033;-72
2022/07/24 12:19:11;;;;;;;2.72;1.50;;;;;;;;;;5041088;28;20033;-73
2022/07/24 12:21:37;;;;;;;2.85;1.65;;;;;;;;;;5045438;28;20098;-72
2022/07/24 12:24:03;;;;;;;5.10;1.77;;;;;;;;;;5047758;28;20069;-72
2022/07/24 12:26:29;;;;;;;2.85;1.65;;;;;;;;;;5047180;28;20706;-76
2022/07/24 12:29:11;;;;;;;2.25;1.33;;;;;;;;;;5047058;28;20059;-75
2022/07/24 12:31:38;;;;;;;4.68;1.55;;;;;;;;;;5048986;28;20546;-72
2022/07/24 12:34:04;;;;;;;1.50;1.40;;;;;;;;;;5037518;28;20064;-72
2022/07/24 12:36:31;;;;;;;2.88;0.93;;;;;;;;;;5038165;28;20036;-72
2022/07/24 12:38:58;;;;;;;2.78;1.10;;;;;;;;;;5031246;28;20064;-71
2022/07/24 12:41:26;;;;;;;3.70;1.48;;;;;;;;;;5030626;28;20057;-71
2022/07/24 12:43:52;;;;;;;1.73;1.23;;;;;;;;;;5007986;28;20092;-71
2022/07/24 12:46:19;;;;;;;3.78;1.58;;;;;;;;;;5035100;28;20070;-71
2022/07/24 12:48:58;;;;;;;4.65;1.30;;;;;;;;;;5035670;28;20032;-73
2022/07/24 12:51:24;;;;;;;3.63;1.30;;;;;;;;;;5022236;28;20074;-72
2022/07/24 12:53:54;;;;;;;4.85;1.40;;;;;;;;;;5027908;28;20041;-73
2022/07/24 12:56:20;;;;;;;6.07;1.40;;;;;;;;;;5025615;28;20048;-73
2022/07/24 12:58:54;;;;;;;2.55;1.48;;;;;;;;;;5027035;28;20036;-72
2022/07/24 13:01:21;;;;;;;22.40;18.48;;;;;;;;;;5039047;28;20033;-78
2022/07/24 13:03:51;;;;;;;2.50;1.60;;;;;;;;;;5029057;28;20492;-74
2022/07/24 13:06:17;;;;;;;2.05;1.15;;;;;;;;;;5027431;28;20098;-76
2022/07/24 13:08:43;;;;;;;3.60;1.30;;;;;;;;;;5029336;28;20048;-74
2022/07/24 13:11:09;;;;;;;1.67;1.30;;;;;;;;;;5026494;28;20017;-73
2022/07/24 13:13:36;;;;;;;2.72;1.35;;;;;;;;;;5022638;28;20042;-73
2022/07/24 13:16:02;;;;;;;3.58;1.27;;;;;;;;;;5030601;28;20153;-73
2022/07/24 13:18:29;;;;;;;5.22;1.65;;;;;;;;;;5033882;28;20121;-73
2022/07/24 13:20:55;;;;;;;2.60;1.17;;;;;;;;;;5034501;28;20053;-73
2022/07/24 13:23:21;;;;;;;2.63;1.45;;;;;;;;;;5020021;28;20399;-72
2022/07/24 13:25:47;;;;;;;6.53;1.20;;;;;;;;;;5030882;28;20033;-74
2022/07/24 13:28:13;;;;;;;5.40;1.63;;;;;;;;;;5039862;28;20412;-76
2022/07/24 13:30:39;;;;;;;6.18;1.20;;;;;;;;;;5026777;28;20496;-70
2022/07/24 13:33:05;;;;;;;5.82;2.05;;;;;;;;;;5028842;28;20377;-72
2022/07/24 13:35:32;;;;;;;4.53;1.00;;;;;;;;;;5032102;28;20035;-74
2022/07/24 13:37:58;;;;;;;3.10;1.27;;;;;;;;;;5044011;28;20124;-74
2022/07/24 13:40:24;;;;;;;1.67;1.27;;;;;;;;;;5045912;28;20029;-74
2022/07/24 13:42:50;;;;;;;2.60;1.50;;;;;;;;;;5046562;28;20037;-74
2022/07/24 13:45:16;;;;;;;2.22;1.00;;;;;;;;;;5040763;28;20120;-74
2022/07/24 13:47:42;;;;;;;2.97;1.85;;;;;;;;;;5044389;28;20461;-74
2022/07/24 13:50:08;;;;;;;2.08;1.23;;;;;;;;;;5050698;28;20384;-74
2022/07/24 13:52:34;;;;;;;1.10;1.00;;;;;;;;;;5043342;28;20036;-73
2022/07/24 13:55:00;;;;;;;5.28;1.20;;;;;;;;;;5032048;28;20029;-74
2022/07/24 13:57:27;;;;;;;2.50;1.30;;;;;;;;;;5048368;28;20583;-74
2022/07/24 13:59:53;;;;;;;3.60;1.40;;;;;;;;;;5048702;28;20036;-74
2022/07/24 14:02:19;;;;;;;1.92;1.15;;;;;;;;;;5045730;28;20094;-72
2022/07/24 14:04:45;;;;;;;5.20;1.40;;;;;;;;;;5043091;28;20029;-71
2022/07/24 14:07:12;;;;;;;3.47;1.40;;;;;;;;;;5030517;28;20102;-73
2022/07/24 14:09:38;;;;;;;2.63;1.45;;;;;;;;;;5051841;28;20061;-73
2022/07/24 14:12:04;;;;;;;2.65;1.95;;;;;;;;;;5044842;28;20037;-74
2022/07/24 14:14:31;;;;;;;2.28;1.30;;;;;;;;;;5043291;28;20532;-73
2022/07/24 14:16:57;;;;;;;2.30;1.40;;;;;;;;;;5037928;28;20393;-74
2022/07/24 14:19:23;;;;;;;3.75;1.58;;;;;;;;;;5043911;28;20036;-74
2022/07/24 14:21:49;;;;;;;1.17;1.13;;;;;;;;;;5049698;28;20087;-74
2022/07/24 14:24:16;;;;;;;1.17;1.00;;;;;;;;;;5028497;28;20025;-75
2022/07/24 14:26:43;;;;;;;2.60;1.33;;;;;;;;;;5048388;28;20063;-74
2022/07/24 14:29:09;;;;;;;2.72;1.42;;;;;;;;;;5046166;28;20090;-74
2022/07/24 14:31:35;;;;;;;2.33;1.25;;;;;;;;;;5048242;28;20064;-74
2022/07/24 14:34:01;;;;;;;1.85;1.27;;;;;;;;;;5048217;28;20053;-74
2022/07/24 14:36:27;;;;;;;3.58;1.27;;;;;;;;;;5032760;28;20036;-73
2022/07/24 14:38:53;;;;;;;1.77;1.65;;;;;;;;;;5047339;28;20037;-74
2022/07/24 14:41:19;;;;;;;4.18;1.33;;;;;;;;;;5049315;28;20072;-74